Time;durP1;ratioP1;P1;durP2;ratioP2;P2;SDS_P1;SDS_P2;PMS_P1;PMS_P2;Temp;Humidity;BMP_temperature;BMP_pressure;BME280_temperature;BME280_humidity;BME280_pressure;Samples;Min_cycle;Max_cycle;Signal;HPM_P1;HPM_P2
2023/04/29 00:00:48;;;;;;;9.57;5.65;;;9.40;99.90;;;;;;4954444;29;20432;-76
2023/04/29 00:03:17;;;;;;;6.38;5.10;;;9.40;99.90;;;;;;4954239;29;20250;-74
2023/04/29 00:05:44;;;;;;;4.82;4.43;;;9.40;99.90;;;;;;4965978;28;20227;-75
2023/04/29 00:08:11;;;;;;;2.38;2.20;;;9.40;99.90;;;;;;4972826;28;20858;-75
2023/04/29 00:10:38;;;;;;;4.03;3.60;;;9.30;99.90;;;;;;4988894;28;20266;-75
2023/04/29 00:13:05;;;;;;;8.18;4.25;;;9.30;99.90;;;;;;4980403;28;20255;-76
2023/04/29 00:15:31;;;;;;;9.15;5.30;;;9.20;99.90;;;;;;4954819;28;20205;-74
2023/04/29 00:17:58;;;;;;;2.95;2.80;;;9.30;99.90;;;;;;4951873;28;20233;-75
2023/04/29 00:20:27;;;;;;;4.45;3.83;;;9.20;99.90;;;;;;4952075;29;20221;-75
2023/04/29 00:22:53;;;;;;;3.90;3.65;;;9.20;99.90;;;;;;4952760;29;20603;-74
2023/04/29 00:25:20;;;;;;;2.22;2.13;;;9.20;99.90;;;;;;4952862;29;20300;-75
2023/04/29 00:27:47;;;;;;;4.47;4.20;;;9.20;99.90;;;;;;4952809;29;20237;-76
2023/04/29 00:30:13;;;;;;;3.03;2.45;;;9.20;99.90;;;;;;4971171;28;20605;-76
2023/04/29 00:32:40;;;;;;;4.25;3.55;;;9.20;99.90;;;;;;4973697;28;20213;-76
2023/04/29 00:35:07;;;;;;;3.28;3.05;;;9.20;99.90;;;;;;4972376;28;20204;-76
2023/04/29 00:37:36;;;;;;;5.95;5.45;;;9.20;99.90;;;;;;4972071;28;20217;-75
2023/04/29 00:40:05;;;;;;;4.53;3.72;;;9.20;99.90;;;;;;4966370;28;20291;-76
2023/04/29 00:42:32;;;;;;;7.75;4.93;;;9.20;99.90;;;;;;4953441;29;20247;-76
2023/04/29 00:44:59;;;;;;;3.85;2.83;;;9.10;99.90;;;;;;4952709;29;20209;-76
2023/04/29 00:47:26;;;;;;;3.67;3.38;;;9.20;99.90;;;;;;4953026;28;20300;-76
2023/04/29 00:49:53;;;;;;;2.83;2.30;;;9.10;99.90;;;;;;4957295;28;20658;-76
2023/04/29 00:52:19;;;;;;;3.53;3.33;;;9.10;99.90;;;;;;4956855;29;20792;-76
2023/04/29 00:54:47;;;;;;;3.53;3.30;;;9.10;99.90;;;;;;4956940;29;20216;-75
2023/04/29 00:57:15;;;;;;;9.93;3.55;;;9.00;99.90;;;;;;4957782;29;20209;-75
2023/04/29 00:59:41;;;;;;;3.85;3.53;;;9.00;99.90;;;;;;4957018;28;20648;-75
2023/04/29 01:02:08;;;;;;;3.28;2.97;;;9.00;99.90;;;;;;4977984;28;20208;-76
2023/04/29 01:04:35;;;;;;;4.90;4.20;;;9.00;99.90;;;;;;4991859;28;20286;-75
2023/04/29 01:07:09;;;;;;;6.20;5.65;;;9.00;99.90;;;;;;4994554;28;20219;-75
2023/04/29 01:09:53;;;;;;;5.50;4.15;;;9.00;99.90;;;;;;4969916;28;20217;-75
2023/04/29 01:12:26;;;;;;;4.63;3.92;;;9.00;99.90;;;;;;4956124;29;20315;-75
2023/04/29 01:15:03;;;;;;;4.25;4.10;;;9.00;99.90;;;;;;4955037;29;20269;-75
2023/04/29 01:17:37;;;;;;;6.22;5.78;;;9.00;99.90;;;;;;4955513;28;20594;-75
2023/04/29 01:20:06;;;;;;;6.22;3.78;;;9.00;99.90;;;;;;4954778;28;20225;-74
2023/04/29 01:22:33;;;;;;;6.10;4.72;;;9.00;99.90;;;;;;4954701;29;20213;-73
2023/04/29 01:25:01;;;;;;;3.67;3.55;;;9.10;99.90;;;;;;4954706;29;20209;-74
2023/04/29 01:27:31;;;;;;;3.42;3.28;;;9.00;99.90;;;;;;4954813;29;20646;-74
2023/04/29 01:30:05;;;;;;;1.85;1.67;;;9.00;99.90;;;;;;4968656;28;20200;-73
2023/04/29 01:32:42;;;;;;;3.60;2.22;;;9.00;99.90;;;;;;4974174;28;20212;-74
2023/04/29 01:35:17;;;;;;;5.20;4.78;;;8.90;99.90;;;;;;4973404;28;20220;-75
2023/04/29 01:37:52;;;;;;;5.10;4.78;;;8.90;99.90;;;;;;4973492;28;20224;-75
2023/04/29 01:40:26;;;;;;;4.18;3.92;;;8.90;99.90;;;;;;4973706;28;20228;-75
2023/04/29 01:43:01;;;;;;;4.10;3.10;;;8.90;99.90;;;;;;4973919;28;20236;-75
2023/04/29 01:45:31;;;;;;;5.97;4.57;;;8.90;99.90;;;;;;4972947;28;20292;-75
2023/04/29 01:47:58;;;;;;;4.60;4.25;;;8.90;99.90;;;;;;4973117;28;20240;-74
2023/04/29 01:50:25;;;;;;;4.53;4.13;;;8.90;99.90;;;;;;4973657;28;20292;-75
2023/04/29 01:52:52;;;;;;;5.85;5.18;;;8.90;99.90;;;;;;4973115;28;20216;-74
2023/04/29 01:55:20;;;;;;;6.43;5.80;;;8.90;99.90;;;;;;4973199;28;20223;-75
2023/04/29 01:57:47;;;;;;;5.90;4.05;;;9.00;99.90;;;;;;4973475;28;20229;-74
2023/04/29 02:00:14;;;;;;;5.57;5.28;;;9.00;99.90;;;;;;4971835;28;20310;-75
2023/04/29 02:02:40;;;;;;;4.68;3.80;;;9.00;99.90;;;;;;4982445;28;20669;-75
2023/04/29 02:05:08;;;;;;;4.07;3.72;;;9.00;99.90;;;;;;4973128;28;20212;-75
2023/04/29 02:07:35;;;;;;;8.05;4.47;;;9.00;99.90;;;;;;4973096;28;20212;-76
2023/04/29 02:10:02;;;;;;;4.70;3.47;;;9.10;99.90;;;;;;4954218;29;20210;-76
2023/04/29 02:12:30;;;;;;;3.75;3.45;;;9.10;99.90;;;;;;4954579;29;20690;-75
2023/04/29 02:14:57;;;;;;;3.70;3.60;;;9.10;99.90;;;;;;4953649;29;20209;-75
2023/04/29 02:17:24;;;;;;;3.45;2.72;;;9.10;99.90;;;;;;4955140;29;20252;-74
2023/04/29 02:19:53;;;;;;;9.00;4.55;;;9.10;99.90;;;;;;4954464;28;20225;-76
2023/04/29 02:22:20;;;;;;;7.03;5.20;;;9.10;99.90;;;;;;4954758;29;20209;-75
2023/04/29 02:24:47;;;;;;;3.35;3.08;;;9.20;99.90;;;;;;4953732;29;20229;-76
2023/04/29 02:27:14;;;;;;;4.82;3.85;;;9.20;99.90;;;;;;4956051;28;20232;-76
2023/04/29 02:29:42;;;;;;;10.35;6.53;;;9.10;99.90;;;;;;4973427;28;20248;-74
2023/04/29 02:32:09;;;;;;;4.10;3.85;;;9.10;99.90;;;;;;4973470;28;20205;-74
2023/04/29 02:34:36;;;;;;;3.92;3.55;;;9.10;99.90;;;;;;4972510;28;20220;-76
2023/04/29 02:37:03;;;;;;;8.77;6.03;;;9.10;99.90;;;;;;4972332;28;20299;-75
2023/04/29 02:39:30;;;;;;;4.43;3.30;;;9.10;99.90;;;;;;4968196;28;20241;-75
2023/04/29 02:41:57;;;;;;;4.70;3.47;;;9.10;99.90;;;;;;4953876;29;20213;-75
2023/04/29 02:44:24;;;;;;;9.20;4.88;;;9.10;99.90;;;;;;4953859;29;20315;-75
2023/04/29 02:46:52;;;;;;;5.38;4.38;;;9.10;99.90;;;;;;4954149;29;20217;-75
2023/04/29 02:49:18;;;;;;;6.68;6.03;;;9.20;99.90;;;;;;4953924;28;20315;-75
2023/04/29 02:51:45;;;;;;;2.90;2.70;;;9.20;99.90;;;;;;4953536;29;20595;-75
2023/04/29 02:54:12;;;;;;;5.47;5.05;;;9.20;99.90;;;;;;4956709;28;20591;-75
2023/04/29 02:56:39;;;;;;;4.75;4.43;;;9.20;99.90;;;;;;4961796;28;20204;-75
2023/04/29 02:59:05;;;;;;;3.97;3.67;;;9.20;99.90;;;;;;4972814;28;20598;-74
2023/04/29 03:01:32;;;;;;;8.40;3.65;;;9.20;99.90;;;;;;4979760;28;20204;-75
2023/04/29 03:04:00;;;;;;;2.97;2.80;;;9.20;99.90;;;;;;4979770;28;20204;-75
2023/04/29 03:06:27;;;;;;;5.25;3.72;;;9.30;99.90;;;;;;4952524;29;20213;-76
2023/04/29 03:08:54;;;;;;;4.10;3.80;;;9.30;99.90;;;;;;4953019;29;20233;-74
2023/04/29 03:11:23;;;;;;;4.20;3.47;;;9.30;99.90;;;;;;4951997;28;20643;-75
2023/04/29 03:13:50;;;;;;;4.10;3.22;;;9.30;99.90;;;;;;4952441;28;20213;-74
2023/04/29 03:16:16;;;;;;;6.03;4.53;;;9.30;99.90;;;;;;4952552;29;20205;-75
2023/04/29 03:18:43;;;;;;;4.97;4.10;;;9.30;99.90;;;;;;4952357;29;20233;-75
2023/04/29 03:21:11;;;;;;;7.22;4.43;;;9.30;99.90;;;;;;4952118;29;20232;-75
2023/04/29 03:23:39;;;;;;;3.60;3.30;;;9.30;99.90;;;;;;4951774;29;20209;-74
2023/04/29 03:26:06;;;;;;;3.03;2.88;;;9.20;99.90;;;;;;4952729;28;20279;-75
2023/04/29 03:28:33;;;;;;;3.47;3.17;;;9.20;99.90;;;;;;4952383;29;20240;-75
2023/04/29 03:31:00;;;;;;;4.03;3.83;;;9.20;99.90;;;;;;4952247;29;20213;-76
2023/04/29 03:33:27;;;;;;;3.35;2.85;;;9.20;99.90;;;;;;4951582;29;20678;-75
2023/04/29 03:35:54;;;;;;;11.73;4.05;;;9.20;99.90;;;;;;4968759;28;20223;-76
2023/04/29 03:38:23;;;;;;;6.03;5.35;;;9.20;99.90;;;;;;4971171;28;20239;-75
2023/04/29 03:40:50;;;;;;;8.57;4.32;;;9.20;99.90;;;;;;4971616;28;20311;-75
2023/04/29 03:43:16;;;;;;;9.23;4.55;;;9.20;99.90;;;;;;4971208;28;20213;-75
2023/04/29 03:45:43;;;;;;;4.55;4.15;;;9.20;99.90;;;;;;4971247;28;20282;-75
2023/04/29 03:48:11;;;;;;;5.13;4.78;;;9.20;99.90;;;;;;4971081;28;20240;-76
2023/04/29 03:50:38;;;;;;;8.18;5.40;;;9.20;99.90;;;;;;4971265;28;20200;-75
2023/04/29 03:53:05;;;;;;;8.68;5.18;;;9.20;99.90;;;;;;4970964;28;20204;-75
2023/04/29 03:55:33;;;;;;;5.30;4.75;;;9.20;99.90;;;;;;4970512;28;20200;-75
2023/04/29 03:57:59;;;;;;;8.23;5.00;;;9.10;99.90;;;;;;4971372;28;20224;-74
2023/04/29 04:00:29;;;;;;;7.85;5.00;;;9.10;99.90;;;;;;4970809;28;20247;-75
2023/04/29 04:02:56;;;;;;;7.53;6.60;;;9.10;99.90;;;;;;4982136;28;20258;-75
2023/04/29 04:05:24;;;;;;;10.45;7.80;;;9.10;99.90;;;;;;4977894;28;20205;-74
2023/04/29 04:07:50;;;;;;;8.60;5.45;;;9.10;99.90;;;;;;4970917;28;20231;-75
2023/04/29 04:10:17;;;;;;;5.88;4.47;;;9.10;99.90;;;;;;4971454;28;20205;-75
2023/04/29 04:12:46;;;;;;;8.32;7.55;;;9.10;99.90;;;;;;4971132;28;20208;-75
2023/04/29 04:15:12;;;;;;;5.75;4.97;;;9.10;99.90;;;;;;4969815;28;20304;-76
2023/04/29 04:17:39;;;;;;;6.35;5.65;;;9.10;99.90;;;;;;4971221;28;20212;-74
2023/04/29 04:20:07;;;;;;;9.23;6.22;;;9.10;99.90;;;;;;4970585;28;20236;-75
2023/04/29 04:22:34;;;;;;;7.55;4.72;;;9.10;99.90;;;;;;4972180;28;20311;-75
2023/04/29 04:25:01;;;;;;;4.47;4.07;;;9.10;99.90;;;;;;4976335;28;20217;-75
2023/04/29 04:27:28;;;;;;;7.63;4.15;;;9.10;99.90;;;;;;4977358;28;20204;-74
2023/04/29 04:29:56;;;;;;;4.97;4.40;;;9.10;99.90;;;;;;5015706;23;20234;-72
2023/04/29 04:32:23;;;;;;;7.30;6.60;;;9.10;99.90;;;;;;5017648;28;20224;-70
2023/04/29 04:34:50;;;;;;;10.48;7.60;;;9.10;99.90;;;;;;5017184;28;20261;-69
2023/04/29 04:37:17;;;;;;;11.32;7.20;;;9.10;99.90;;;;;;5017000;28;20693;-70
2023/04/29 04:39:44;;;;;;;9.80;7.15;;;9.10;99.90;;;;;;5017290;28;20227;-70
2023/04/29 04:42:11;;;;;;;13.13;7.60;;;9.00;99.90;;;;;;5016850;28;20214;-71
2023/04/29 04:44:37;;;;;;;5.38;4.70;;;9.10;99.90;;;;;;5016785;28;20207;-71
2023/04/29 04:47:06;;;;;;;12.65;7.38;;;9.10;99.90;;;;;;5016764;28;20293;-70
2023/04/29 04:49:32;;;;;;;6.72;6.25;;;9.10;99.90;;;;;;5016391;28;20226;-71
2023/04/29 04:51:59;;;;;;;7.93;4.78;;;9.00;99.90;;;;;;5016640;28;20309;-71
2023/04/29 04:54:26;;;;;;;7.20;6.50;;;9.10;99.90;;;;;;5016685;28;20302;-70
2023/04/29 04:56:53;;;;;;;4.70;4.30;;;9.10;99.90;;;;;;5016819;28;20230;-71
2023/04/29 04:59:20;;;;;;;21.25;7.65;;;9.10;99.90;;;;;;5017024;28;20231;-70
2023/04/29 05:01:46;;;;;;;5.25;4.75;;;9.10;99.90;;;;;;5004802;28;20282;-70
2023/04/29 05:04:15;;;;;;;6.05;5.65;;;9.10;99.90;;;;;;4996844;28;20219;-71
2023/04/29 05:06:41;;;;;;;9.05;6.10;;;9.10;99.90;;;;;;4996970;28;20578;-71
2023/04/29 05:09:08;;;;;;;6.65;5.13;;;9.10;99.90;;;;;;4996954;28;20218;-71
2023/04/29 05:11:35;;;;;;;5.40;4.90;;;9.10;99.90;;;;;;4996910;28;20235;-71
2023/04/29 05:14:02;;;;;;;6.05;5.53;;;9.10;99.90;;;;;;4996671;28;20226;-71
2023/04/29 05:16:28;;;;;;;6.63;5.93;;;9.10;99.90;;;;;;4996581;28;20215;-71
2023/04/29 05:18:55;;;;;;;8.40;5.80;;;9.20;99.90;;;;;;5005332;28;20214;-70
2023/04/29 05:21:23;;;;;;;15.88;5.57;;;9.20;99.90;;;;;;5016320;28;20231;-71
2023/04/29 05:23:50;;;;;;;8.82;4.65;;;9.30;99.90;;;;;;5016091;28;20210;-71
2023/04/29 05:26:17;;;;;;;4.28;3.90;;;9.30;99.90;;;;;;5016388;28;20214;-72
2023/04/29 05:28:43;;;;;;;11.50;4.05;;;9.40;99.90;;;;;;5016316;28;20207;-71
2023/04/29 05:31:10;;;;;;;6.63;5.88;;;9.40;99.90;;;;;;5015970;28;20321;-71
2023/04/29 05:33:37;;;;;;;9.93;6.53;;;9.40;99.90;;;;;;5016147;28;20199;-70
2023/04/29 05:36:05;;;;;;;6.63;5.28;;;9.40;99.90;;;;;;5011967;28;20207;-70
2023/04/29 05:38:33;;;;;;;8.80;4.60;;;9.30;99.90;;;;;;5012952;28;20213;-70
2023/04/29 05:41:00;;;;;;;9.15;8.27;;;9.40;99.90;;;;;;5012581;28;20703;-70
2023/04/29 05:43:27;;;;;;;4.38;4.07;;;9.40;99.90;;;;;;5005560;28;20196;-71
2023/04/29 05:45:54;;;;;;;7.30;6.68;;;9.50;99.90;;;;;;4993342;28;20262;-70
2023/04/29 05:48:21;;;;;;;9.13;6.82;;;9.50;99.90;;;;;;4993245;28;20215;-71
2023/04/29 05:50:48;;;;;;;5.85;5.00;;;9.50;99.90;;;;;;4992900;28;20235;-71
2023/04/29 05:53:15;;;;;;;7.63;5.55;;;9.50;99.90;;;;;;4998400;28;20570;-71
2023/04/29 05:55:43;;;;;;;6.55;5.95;;;9.50;99.90;;;;;;5012445;28;20269;-69
2023/04/29 05:58:10;;;;;;;6.40;5.47;;;9.50;99.90;;;;;;5012933;28;20294;-70
2023/04/29 06:00:37;;;;;;;5.82;5.22;;;9.50;99.90;;;;;;5011275;28;20234;-70
2023/04/29 06:03:04;;;;;;;6.78;6.10;;;9.60;99.90;;;;;;4997421;28;20203;-70
2023/04/29 06:05:31;;;;;;;6.15;5.40;;;9.60;99.90;;;;;;5013411;28;20222;-70
2023/04/29 06:07:58;;;;;;;5.38;4.18;;;9.70;99.90;;;;;;5012901;28;20207;-71
2023/04/29 06:10:24;;;;;;;13.80;7.28;;;9.70;99.90;;;;;;5012673;28;20231;-72
2023/04/29 06:12:52;;;;;;;10.02;7.20;;;9.70;99.90;;;;;;5010646;28;20215;-71
2023/04/29 06:15:19;;;;;;;6.38;5.78;;;9.70;99.90;;;;;;4992365;28;20223;-72
2023/04/29 06:17:47;;;;;;;7.65;6.13;;;9.70;99.90;;;;;;4992475;28;20210;-70
2023/04/29 06:20:14;;;;;;;5.18;4.68;;;9.80;99.90;;;;;;4992379;28;20236;-71
2023/04/29 06:22:41;;;;;;;6.35;5.78;;;9.80;99.90;;;;;;4992733;28;20222;-70
2023/04/29 06:25:08;;;;;;;10.88;9.60;;;9.70;99.90;;;;;;5012109;28;20512;-70
2023/04/29 06:27:35;;;;;;;6.13;5.22;;;9.70;99.90;;;;;;5012362;28;20285;-71
2023/04/29 06:30:03;;;;;;;9.70;6.93;;;9.70;99.90;;;;;;5011741;28;20235;-72
2023/04/29 06:32:30;;;;;;;11.98;7.30;;;9.80;99.90;;;;;;4999332;28;20203;-72
2023/04/29 06:34:56;;;;;;;10.35;6.63;;;10.00;99.90;;;;;;4992502;28;20218;-71
2023/04/29 06:37:23;;;;;;;12.80;6.95;;;10.00;99.90;;;;;;4992035;28;20230;-72
2023/04/29 06:39:50;;;;;;;10.35;8.75;;;10.10;99.90;;;;;;4982847;28;20279;-72
2023/04/29 06:42:17;;;;;;;12.55;7.03;;;10.20;99.90;;;;;;4977753;28;20318;-71
2023/04/29 06:44:44;;;;;;;8.50;7.22;;;10.50;99.90;;;;;;4992007;28;20212;-72
2023/04/29 06:47:12;;;;;;;14.55;7.93;;;10.80;99.90;;;;;;4990707;28;20204;-72
2023/04/29 06:49:38;;;;;;;14.63;8.50;;;11.30;99.90;;;;;;4991378;28;20310;-72
2023/04/29 06:52:05;;;;;;;14.73;9.43;;;11.80;99.90;;;;;;4974010;28;20475;-72
2023/04/29 06:54:32;;;;;;;7.60;6.57;;;12.30;99.90;;;;;;4976719;28;20590;-72
2023/04/29 06:56:59;;;;;;;10.60;6.77;;;12.70;99.90;;;;;;4992127;28;20653;-72
2023/04/29 06:59:26;;;;;;;11.97;8.00;;;12.90;99.90;;;;;;4991676;28;20972;-72
2023/04/29 07:01:53;;;;;;;8.93;8.03;;;13.30;99.90;;;;;;4992947;28;20483;-72
2023/04/29 07:04:21;;;;;;;7.23;5.80;;;14.00;99.90;;;;;;4990770;28;20481;-71
2023/04/29 07:06:48;;;;;;;8.17;6.10;;;14.30;99.90;;;;;;4983218;28;20536;-69
2023/04/29 07:09:15;;;;;;;6.07;5.67;;;14.70;99.90;;;;;;4989072;28;20518;-69
2023/04/29 07:11:42;;;;;;;3.90;3.80;;;15.40;99.90;;;;;;4989664;28;20474;-71
2023/04/29 07:14:09;;;;;;;6.90;3.50;;;;;;;;;;4989441;28;20819;-69
2023/04/29 07:16:35;;;;;;;4.10;3.80;;;15.70;99.90;;;;;;4991131;28;20467;-71
2023/04/29 07:19:02;;;;;;;4.17;3.87;;;15.50;99.90;;;;;;4995025;28;20458;-71
2023/04/29 07:21:30;;;;;;;4.20;3.90;;;15.50;99.90;;;;;;4991781;28;20543;-72
2023/04/29 07:23:59;;;;;;;4.50;4.30;;;15.70;99.90;;;;;;4991166;28;20497;-72
2023/04/29 07:26:26;;;;;;;2.87;2.67;;;16.10;99.90;;;;;;4990921;28;20919;-71
2023/04/29 07:28:53;;;;;;;3.10;3.00;;;16.10;99.90;;;;;;4980210;28;20468;-72
2023/04/29 07:31:21;;;;;;;3.70;3.50;;;16.00;99.90;;;;;;4992834;28;20498;-72
2023/04/29 07:33:48;;;;;;;7.27;3.27;;;15.60;99.90;;;;;;4990753;28;20830;-72
2023/04/29 07:36:15;;;;;;;3.27;3.17;;;15.40;99.90;;;;;;4990800;28;20493;-72
2023/04/29 07:38:43;;;;;;;3.37;2.90;;;14.90;99.90;;;;;;4988740;28;20477;-70
2023/04/29 07:41:09;;;;;;;3.17;2.97;;;14.60;99.90;;;;;;4987507;28;20497;-73
2023/04/29 07:43:36;;;;;;;3.50;3.30;;;14.60;99.90;;;;;;4986525;28;20469;-71
2023/04/29 07:46:03;;;;;;;3.03;2.70;;;14.30;99.90;;;;;;4989798;28;20844;-72
2023/04/29 07:48:29;;;;;;;3.57;3.23;;;14.30;99.90;;;;;;4991044;28;20519;-72
2023/04/29 07:50:56;;;;;;;4.17;3.87;;;14.00;99.90;;;;;;4989601;28;20486;-72
2023/04/29 07:53:23;;;;;;;3.33;3.10;;;13.90;99.90;;;;;;4984207;28;20865;-72
2023/04/29 07:55:51;;;;;;;3.73;3.23;;;13.70;99.90;;;;;;4985430;28;20928;-74
2023/04/29 07:58:18;;;;;;;3.03;2.93;;;13.70;99.90;;;;;;5010212;28;20549;-71
2023/04/29 08:00:46;;;;;;;4.53;4.13;;;13.60;99.90;;;;;;5007348;28;20495;-70
2023/04/29 08:03:13;;;;;;;2.97;2.77;;;13.50;99.90;;;;;;5005904;28;20523;-70
2023/04/29 08:05:39;;;;;;;2.90;2.70;;;13.50;99.90;;;;;;5010015;28;20467;-72
2023/04/29 08:08:06;;;;;;;3.40;3.20;;;13.40;99.90;;;;;;5007702;28;20451;-71
2023/04/29 08:10:33;;;;;;;3.33;3.13;;;13.40;99.90;;;;;;5006746;28;20550;-72
2023/04/29 08:13:01;;;;;;;2.97;2.67;;;13.40;99.90;;;;;;4990413;28;20471;-72
2023/04/29 08:15:28;;;;;;;3.33;1.90;;;13.40;99.90;;;;;;4989148;28;20467;-72
2023/04/29 08:17:55;;;;;;;3.10;1.70;;;13.30;99.90;;;;;;4989326;28;20471;-73
2023/04/29 08:20:21;;;;;;;2.97;2.37;;;13.30;99.90;;;;;;4988390;28;20948;-73
2023/04/29 08:22:48;;;;;;;4.73;2.63;;;13.20;99.90;;;;;;4990604;28;20581;-73
2023/04/29 08:25:15;;;;;;;2.93;2.63;;;13.20;99.90;;;;;;4989891;28;20463;-73
2023/04/29 08:27:44;;;;;;;2.90;2.70;;;13.20;99.90;;;;;;4991333;28;20558;-73
2023/04/29 08:30:13;;;;;;;4.83;2.93;;;13.20;99.90;;;;;;4990815;28;20490;-73
2023/04/29 08:32:39;;;;;;;2.87;2.00;;;13.20;99.90;;;;;;4991458;28;20546;-73
2023/04/29 08:35:07;;;;;;;2.67;2.50;;;13.40;99.90;;;;;;4983880;28;20482;-73
2023/04/29 08:37:34;;;;;;;5.20;2.67;;;13.40;99.90;;;;;;4984335;28;20471;-73
2023/04/29 08:40:02;;;;;;;4.40;4.10;;;13.30;99.90;;;;;;4976764;28;20502;-73
2023/04/29 08:42:35;;;;;;;5.00;2.50;;;13.30;99.90;;;;;;4998629;28;20505;-73
2023/04/29 08:45:02;;;;;;;3.67;3.43;;;13.30;99.90;;;;;;4977578;28;20469;-73
2023/04/29 08:47:32;;;;;;;4.00;3.73;;;13.20;99.90;;;;;;5008204;28;20501;-72
2023/04/29 08:50:02;;;;;;;3.40;3.10;;;13.30;99.90;;;;;;4987943;28;20578;-73
2023/04/29 08:52:30;;;;;;;3.70;3.10;;;13.20;99.90;;;;;;4971183;28;20894;-73
2023/04/29 08:54:57;;;;;;;3.57;2.53;;;13.20;99.90;;;;;;4971318;28;20810;-73
2023/04/29 08:57:25;;;;;;;3.23;2.93;;;13.30;99.90;;;;;;4971225;28;21023;-73
2023/04/29 08:59:53;;;;;;;3.37;2.23;;;13.30;99.90;;;;;;4972582;28;20491;-73
2023/04/29 09:02:21;;;;;;;4.77;4.43;;;13.30;99.90;;;;;;4987054;28;20494;-72
2023/04/29 09:04:57;;;;;;;2.73;2.53;;;13.40;99.90;;;;;;4990609;28;20470;-73
2023/04/29 09:07:24;;;;;;;4.17;3.87;;;13.40;99.90;;;;;;4975684;28;20469;-74
2023/04/29 09:09:52;;;;;;;4.77;3.60;;;13.40;99.90;;;;;;4975622;28;20486;-72
2023/04/29 09:12:19;;;;;;;2.90;2.70;;;13.40;99.90;;;;;;4993156;28;20486;-73
2023/04/29 09:14:46;;;;;;;2.03;1.80;;;13.40;99.90;;;;;;4992369;28;20463;-72
2023/04/29 09:17:15;;;;;;;3.17;2.87;;;13.50;99.90;;;;;;4993774;28;20467;-73
2023/04/29 09:19:42;;;;;;;2.87;2.70;;;13.50;99.90;;;;;;4993638;28;20486;-73
2023/04/29 09:22:10;;;;;;;1.83;1.73;;;13.50;99.90;;;;;;4986214;28;20487;-72
2023/04/29 09:24:38;;;;;;;4.40;3.20;;;13.60;99.90;;;;;;4980453;28;20478;-73
2023/04/29 09:27:05;;;;;;;3.20;2.90;;;13.70;99.90;;;;;;4999753;28;20473;-73
2023/04/29 09:29:33;;;;;;;3.77;3.60;;;13.60;99.90;;;;;;4993858;28;20486;-73
2023/04/29 09:32:00;;;;;;;2.60;2.40;;;13.70;99.90;;;;;;4994921;28;20466;-73
2023/04/29 09:34:32;;;;;;;3.07;2.83;;;13.70;99.90;;;;;;4994012;28;20461;-73
2023/04/29 09:36:58;;;;;;;4.40;4.00;;;13.80;99.90;;;;;;4993615;28;20459;-73
2023/04/29 09:39:27;;;;;;;3.20;3.00;;;13.90;99.90;;;;;;4989927;28;20499;-73
2023/04/29 09:42:01;;;;;;;3.53;2.63;;;13.80;99.90;;;;;;4993420;28;20494;-73
2023/04/29 09:44:30;;;;;;;3.83;3.60;;;13.90;99.90;;;;;;4993751;28;20476;-73
2023/04/29 09:46:58;;;;;;;3.30;3.00;;;13.90;99.90;;;;;;4993785;28;20490;-73
2023/04/29 09:49:26;;;;;;;3.20;3.00;;;13.90;99.90;;;;;;4993373;28;20946;-73
2023/04/29 09:51:54;;;;;;;3.27;2.97;;;13.90;99.90;;;;;;4993225;28;20462;-73
2023/04/29 09:54:22;;;;;;;6.50;2.50;;;14.00;99.90;;;;;;4993580;28;20470;-73
2023/04/29 09:56:51;;;;;;;4.43;3.43;;;14.10;99.90;;;;;;4992996;28;20542;-74
2023/04/29 09:59:18;;;;;;;2.70;2.53;;;14.10;99.90;;;;;;4993306;28;20501;-73
2023/04/29 10:01:48;;;;;;;3.97;3.50;;;14.00;99.90;;;;;;4993254;28;20574;-73
2023/04/29 10:04:17;;;;;;;6.97;4.80;;;14.00;99.90;;;;;;4993321;28;20872;-74
2023/04/29 10:06:44;;;;;;;3.70;3.40;;;14.10;99.90;;;;;;4993105;28;20790;-73
2023/04/29 10:09:17;;;;;;;3.37;3.07;;;14.10;99.90;;;;;;4992895;28;20946;-73
2023/04/29 10:11:44;;;;;;;4.80;3.47;;;14.10;99.90;;;;;;4995375;28;20507;-73
2023/04/29 10:14:15;;;;;;;2.70;2.33;;;14.10;99.90;;;;;;4992835;28;20469;-73
2023/04/29 10:16:46;;;;;;;4.72;3.22;;;14.30;99.90;;;;;;4988330;28;20464;-74
2023/04/29 10:19:18;;;;;;;3.23;3.00;;;14.30;99.90;;;;;;4992740;28;20683;-72
2023/04/29 10:21:48;;;;;;;4.00;2.90;;;14.30;99.90;;;;;;4991887;28;20493;-72
2023/04/29 10:24:17;;;;;;;5.83;2.50;;;14.30;99.90;;;;;;4986075;28;20456;-72
2023/04/29 10:26:44;;;;;;;4.00;2.70;;;14.40;99.90;;;;;;4973363;28;20467;-72
2023/04/29 10:29:14;;;;;;;1.63;1.50;;;14.40;99.90;;;;;;4973549;28;20460;-73
2023/04/29 10:31:43;;;;;;;3.03;2.77;;;14.40;99.90;;;;;;5014181;23;20522;-74
2023/04/29 10:34:09;;;;;;;2.17;2.07;;;14.50;99.90;;;;;;4994625;28;20769;-74
2023/04/29 10:36:37;;;;;;;4.60;3.10;;;14.60;99.90;;;;;;4994917;28;20467;-75
2023/04/29 10:39:07;;;;;;;17.97;4.07;;;14.60;99.90;;;;;;4995057;28;20474;-75
2023/04/29 10:41:37;;;;;;;6.80;3.57;;;14.60;99.90;;;;;;5008188;28;20497;-75
2023/04/29 10:44:04;;;;;;;3.17;2.87;;;14.60;99.90;;;;;;5009174;28;20475;-75
2023/04/29 10:46:32;;;;;;;3.90;3.60;;;14.60;99.90;;;;;;4992576;28;20463;-73
2023/04/29 10:49:01;;;;;;;2.17;2.07;;;14.60;99.90;;;;;;4993913;28;20589;-72
2023/04/29 10:51:33;;;;;;;3.40;2.77;;;14.60;99.90;;;;;;4993600;28;20549;-73
2023/04/29 10:54:02;;;;;;;2.93;2.47;;;14.60;99.90;;;;;;4993771;28;20525;-73
2023/04/29 10:56:39;;;;;;;3.23;2.90;;;14.60;99.90;;;;;;4993024;28;20463;-73
2023/04/29 10:59:09;;;;;;;3.40;2.43;;;14.70;99.90;;;;;;4993062;28;20553;-73
2023/04/29 11:01:45;;;;;;;2.00;2.00;;;14.70;99.90;;;;;;4991557;28;20497;-73
2023/04/29 11:04:13;;;;;;;4.63;3.07;;;14.70;99.90;;;;;;4992087;28;20517;-73
2023/04/29 11:06:42;;;;;;;2.80;2.60;;;14.80;99.90;;;;;;4992546;28;20536;-72
2023/04/29 11:09:12;;;;;;;3.50;3.20;;;14.90;99.90;;;;;;4993303;28;20463;-73
2023/04/29 11:12:01;;;;;;;4.00;3.33;;;15.00;99.90;;;;;;4992755;28;20570;-72
2023/04/29 11:14:30;;;;;;;4.63;3.50;;;15.00;99.90;;;;;;4992089;28;20538;-72
2023/04/29 11:17:00;;;;;;;2.87;2.67;;;14.90;99.90;;;;;;4993143;28;20459;-73
2023/04/29 11:19:32;;;;;;;6.63;3.17;;;14.80;99.90;;;;;;4992439;28;20900;-74
2023/04/29 11:22:10;;;;;;;3.27;2.47;;;14.90;99.90;;;;;;4992454;28;20546;-73
2023/04/29 11:24:47;;;;;;;5.10;3.40;;;15.00;99.90;;;;;;4992559;28;20838;-73
2023/04/29 11:27:15;;;;;;;3.77;3.47;;;15.10;99.90;;;;;;4992889;28;20474;-72
2023/04/29 11:29:42;;;;;;;3.80;3.47;;;15.10;99.90;;;;;;4991335;28;20888;-72
2023/04/29 11:32:10;;;;;;;2.20;2.00;;;15.30;99.90;;;;;;4991936;28;20613;-74
2023/04/29 11:34:37;;;;;;;3.60;3.40;;;15.40;99.90;;;;;;4991316;28;20525;-73
2023/04/29 11:37:05;;;;;;;4.30;3.13;;;15.50;99.90;;;;;;4991635;28;20463;-73
2023/04/29 11:39:34;;;;;;;4.37;2.90;;;15.60;99.90;;;;;;4991797;28;20490;-74
2023/04/29 11:42:04;;;;;;;5.03;3.70;;;15.80;99.90;;;;;;4991906;28;20549;-74
2023/04/29 11:44:34;;;;;;;2.87;2.77;;;15.90;99.90;;;;;;4991051;28;20474;-73
2023/04/29 11:47:04;;;;;;;4.00;2.50;;;16.10;99.90;;;;;;4992061;28;20467;-74
2023/04/29 11:49:32;;;;;;;2.80;2.60;;;16.20;99.90;;;;;;4991442;28;20489;-72
2023/04/29 11:51:59;;;;;;;2.73;2.53;;;16.30;99.90;;;;;;4991919;28;20828;-73
2023/04/29 11:54:26;;;;;;;3.60;3.40;;;16.20;99.90;;;;;;4992116;28;20527;-73
2023/04/29 11:56:54;;;;;;;2.13;2.03;;;16.10;99.90;;;;;;4992977;28;20463;-73
2023/04/29 11:59:22;;;;;;;3.23;2.67;;;15.90;99.90;;;;;;4993453;28;20463;-73
2023/04/29 12:01:49;;;;;;;3.00;2.83;;;15.80;99.90;;;;;;4991543;28;20486;-73
2023/04/29 12:04:16;;;;;;;2.97;2.63;;;15.80;99.90;;;;;;4991238;28;20458;-73
2023/04/29 12:06:44;;;;;;;2.70;2.60;;;16.10;99.90;;;;;;4991916;28;20986;-73
2023/04/29 12:09:10;;;;;;;5.60;3.83;;;16.10;99.90;;;;;;4992603;28;20463;-74
2023/04/29 12:11:38;;;;;;;2.57;2.37;;;16.00;99.90;;;;;;4992726;28;20872;-73
2023/04/29 12:14:06;;;;;;;3.97;3.80;;;16.10;99.90;;;;;;4992356;28;20550;-74
2023/04/29 12:16:33;;;;;;;3.03;2.83;;;16.10;99.90;;;;;;4992590;28;20462;-72
2023/04/29 12:19:00;;;;;;;2.40;2.00;;;16.10;99.90;;;;;;4991980;28;20459;-73
2023/04/29 12:21:27;;;;;;;2.57;2.47;;;16.20;99.90;;;;;;4992130;28;20487;-73
2023/04/29 12:23:59;;;;;;;1.47;1.47;;;16.30;99.90;;;;;;4992138;28;20968;-72
2023/04/29 12:26:28;;;;;;;3.33;2.53;;;16.30;99.90;;;;;;4992389;28;20471;-73
2023/04/29 12:28:56;;;;;;;2.37;2.20;;;16.00;99.90;;;;;;4992499;28;20796;-73
2023/04/29 12:31:24;;;;;;;3.07;2.77;;;15.90;99.90;;;;;;4990878;28;20486;-73
2023/04/29 12:33:54;;;;;;;2.73;2.57;;;15.90;99.90;;;;;;4991001;28;20517;-73
2023/04/29 12:36:21;;;;;;;3.60;3.30;;;15.90;99.90;;;;;;4991477;28;20467;-73
2023/04/29 12:38:48;;;;;;;3.17;2.97;;;15.90;99.90;;;;;;4992048;28;20547;-72
2023/04/29 12:41:17;;;;;;;2.13;1.77;;;15.90;99.90;;;;;;4991574;28;21063;-72
2023/04/29 12:43:44;;;;;;;2.53;2.33;;;15.90;99.90;;;;;;4991761;28;20970;-72
2023/04/29 12:46:12;;;;;;;2.30;2.20;;;16.00;99.90;;;;;;4996087;28;20482;-72
2023/04/29 12:48:42;;;;;;;4.07;2.50;;;16.20;99.90;;;;;;4996289;28;20466;-73
2023/04/29 12:51:10;;;;;;;3.00;2.77;;;16.30;99.90;;;;;;4995539;28;20824;-72
2023/04/29 12:53:37;;;;;;;4.80;3.30;;;16.30;99.90;;;;;;4995552;28;20474;-73